sensor_id;sensor_type;location;lat;lon;timestamp;temperature;humidity
12622;DHT22;6376;48.182;-1.644;2023-08-17T00:01:55;20.20;90.70
12622;DHT22;6376;48.182;-1.644;2023-08-17T00:04:21;20.20;90.80
12622;DHT22;6376;48.182;-1.644;2023-08-17T00:06:47;20.20;90.80
12622;DHT22;6376;48.182;-1.644;2023-08-17T00:09:13;20.20;90.80
12622;DHT22;6376;48.182;-1.644;2023-08-17T00:11:38;20.20;90.80
12622;DHT22;6376;48.182;-1.644;2023-08-17T00:14:05;20.20;90.90
12622;DHT22;6376;48.182;-1.644;2023-08-17T00:16:31;20.20;90.80
12622;DHT22;6376;48.182;-1.644;2023-08-17T00:18:57;20.20;90.90
12622;DHT22;6376;48.182;-1.644;2023-08-17T00:21:22;20.20;90.90
12622;DHT22;6376;48.182;-1.644;2023-08-17T00:23:48;20.20;90.90
12622;DHT22;6376;48.182;-1.644;2023-08-17T00:26:14;20.20;90.90
12622;DHT22;6376;48.182;-1.644;2023-08-17T00:28:40;20.20;90.90
12622;DHT22;6376;48.182;-1.644;2023-08-17T00:31:06;20.20;90.90
12622;DHT22;6376;48.182;-1.644;2023-08-17T00:33:31;20.20;90.90
12622;DHT22;6376;48.182;-1.644;2023-08-17T00:35:57;20.20;90.90
12622;DHT22;6376;48.182;-1.644;2023-08-17T00:38:24;20.20;90.90
12622;DHT22;6376;48.182;-1.644;2023-08-17T00:40:49;20.20;90.90
12622;DHT22;6376;48.182;-1.644;2023-08-17T00:43:15;20.20;90.90
12622;DHT22;6376;48.182;-1.644;2023-08-17T00:45:41;20.20;90.90
12622;DHT22;6376;48.182;-1.644;2023-08-17T00:48:08;20.20;90.90
12622;DHT22;6376;48.182;-1.644;2023-08-17T00:50:34;20.20;90.90
12622;DHT22;6376;48.182;-1.644;2023-08-17T00:53:01;20.20;91.00
12622;DHT22;6376;48.182;-1.644;2023-08-17T00:55:27;20.10;90.90
12622;DHT22;6376;48.182;-1.644;2023-08-17T00:57:56;20.10;90.90
12622;DHT22;6376;48.182;-1.644;2023-08-17T01:00:22;20.10;90.90
12622;DHT22;6376;48.182;-1.644;2023-08-17T01:02:49;20.10;90.90
12622;DHT22;6376;48.182;-1.644;2023-08-17T01:05:15;20.10;90.90
12622;DHT22;6376;48.182;-1.644;2023-08-17T01:07:40;20.10;91.00
12622;DHT22;6376;48.182;-1.644;2023-08-17T01:10:07;20.10;90.90
12622;DHT22;6376;48.182;-1.644;2023-08-17T01:12:41;20.10;91.00
12622;DHT22;6376;48.182;-1.644;2023-08-17T01:15:27;20.10;91.00
12622;DHT22;6376;48.182;-1.644;2023-08-17T01:18:23;20.10;90.90
12622;DHT22;6376;48.182;-1.644;2023-08-17T01:20:53;20.10;91.00
12622;DHT22;6376;48.182;-1.644;2023-08-17T01:23:19;20.10;91.00
12622;DHT22;6376;48.182;-1.644;2023-08-17T01:25:45;20.10;91.00
12622;DHT22;6376;48.182;-1.644;2023-08-17T01:28:11;20.10;91.00
12622;DHT22;6376;48.182;-1.644;2023-08-17T01:33:12;20.10;91.00
12622;DHT22;6376;48.182;-1.644;2023-08-17T01:35:46;20.10;91.00
12622;DHT22;6376;48.182;-1.644;2023-08-17T01:38:17;20.10;91.00
12622;DHT22;6376;48.182;-1.644;2023-08-17T01:40:45;20.10;91.00
12622;DHT22;6376;48.182;-1.644;2023-08-17T01:43:13;20.10;91.00
12622;DHT22;6376;48.182;-1.644;2023-08-17T01:45:40;20.10;91.00
12622;DHT22;6376;48.182;-1.644;2023-08-17T01:48:05;20.10;91.00
12622;DHT22;6376;48.182;-1.644;2023-08-17T01:50:31;20.10;91.00
12622;DHT22;6376;48.182;-1.644;2023-08-17T01:52:57;20.10;91.10
12622;DHT22;6376;48.182;-1.644;2023-08-17T01:55:22;20.10;91.10
12622;DHT22;6376;48.182;-1.644;2023-08-17T01:57:52;20.10;91.10
12622;DHT22;6376;48.182;-1.644;2023-08-17T02:00:17;20.10;91.10
12622;DHT22;6376;48.182;-1.644;2023-08-17T02:02:43;20.10;91.10
12622;DHT22;6376;48.182;-1.644;2023-08-17T02:05:09;20.10;91.10
12622;DHT22;6376;48.182;-1.644;2023-08-17T02:07:34;20.10;91.10
12622;DHT22;6376;48.182;-1.644;2023-08-17T02:10:00;20.10;91.10
12622;DHT22;6376;48.182;-1.644;2023-08-17T02:12:26;20.10;91.10
12622;DHT22;6376;48.182;-1.644;2023-08-17T02:14:51;20.10;91.10
12622;DHT22;6376;48.182;-1.644;2023-08-17T02:17:18;20.10;91.10
12622;DHT22;6376;48.182;-1.644;2023-08-17T02:19:45;20.00;91.10
12622;DHT22;6376;48.182;-1.644;2023-08-17T02:22:12;20.00;91.10
12622;DHT22;6376;48.182;-1.644;2023-08-17T02:24:38;20.00;91.10
12622;DHT22;6376;48.182;-1.644;2023-08-17T02:27:04;20.00;91.10
12622;DHT22;6376;48.182;-1.644;2023-08-17T02:29:30;20.00;91.10
12622;DHT22;6376;48.182;-1.644;2023-08-17T02:31:55;20.00;91.20
12622;DHT22;6376;48.182;-1.644;2023-08-17T02:34:21;20.00;91.20
12622;DHT22;6376;48.182;-1.644;2023-08-17T02:36:46;20.00;91.20
12622;DHT22;6376;48.182;-1.644;2023-08-17T02:39:12;20.00;91.20
12622;DHT22;6376;48.182;-1.644;2023-08-17T02:41:38;20.00;91.20
12622;DHT22;6376;48.182;-1.644;2023-08-17T02:44:04;20.00;91.20
12622;DHT22;6376;48.182;-1.644;2023-08-17T02:46:30;20.00;91.20
12622;DHT22;6376;48.182;-1.644;2023-08-17T02:48:56;20.00;91.20
12622;DHT22;6376;48.182;-1.644;2023-08-17T02:51:21;20.00;91.30
12622;DHT22;6376;48.182;-1.644;2023-08-17T02:53:47;20.00;91.50
12622;DHT22;6376;48.182;-1.644;2023-08-17T02:56:13;20.00;91.30
12622;DHT22;6376;48.182;-1.644;2023-08-17T02:58:39;20.00;91.30
12622;DHT22;6376;48.182;-1.644;2023-08-17T03:01:08;20.00;91.30
12622;DHT22;6376;48.182;-1.644;2023-08-17T03:03:34;20.00;91.30
12622;DHT22;6376;48.182;-1.644;2023-08-17T03:06:00;20.00;91.30
12622;DHT22;6376;48.182;-1.644;2023-08-17T03:08:26;19.90;91.30
12622;DHT22;6376;48.182;-1.644;2023-08-17T03:10:52;20.00;91.30
12622;DHT22;6376;48.182;-1.644;2023-08-17T03:13:17;19.90;91.30
12622;DHT22;6376;48.182;-1.644;2023-08-17T03:15:43;19.90;91.40
12622;DHT22;6376;48.182;-1.644;2023-08-17T03:18:08;19.90;91.40
12622;DHT22;6376;48.182;-1.644;2023-08-17T03:20:34;19.90;91.40
12622;DHT22;6376;48.182;-1.644;2023-08-17T03:23:00;19.90;91.40
12622;DHT22;6376;48.182;-1.644;2023-08-17T03:25:25;19.90;91.40
12622;DHT22;6376;48.182;-1.644;2023-08-17T03:27:51;19.90;91.40
12622;DHT22;6376;48.182;-1.644;2023-08-17T03:30:17;19.90;91.40
12622;DHT22;6376;48.182;-1.644;2023-08-17T03:32:42;19.90;91.40
12622;DHT22;6376;48.182;-1.644;2023-08-17T03:35:08;19.90;91.40
12622;DHT22;6376;48.182;-1.644;2023-08-17T03:37:34;19.90;91.50
12622;DHT22;6376;48.182;-1.644;2023-08-17T03:39:59;19.90;91.50
12622;DHT22;6376;48.182;-1.644;2023-08-17T03:42:26;19.90;91.50
12622;DHT22;6376;48.182;-1.644;2023-08-17T03:44:52;19.90;91.50
12622;DHT22;6376;48.182;-1.644;2023-08-17T03:47:18;19.90;91.50
12622;DHT22;6376;48.182;-1.644;2023-08-17T03:49:44;19.90;91.50
12622;DHT22;6376;48.182;-1.644;2023-08-17T03:52:10;19.90;91.50
12622;DHT22;6376;48.182;-1.644;2023-08-17T03:54:36;19.90;91.50
12622;DHT22;6376;48.182;-1.644;2023-08-17T03:57:01;19.90;91.60
12622;DHT22;6376;48.182;-1.644;2023-08-17T03:59:27;19.90;91.60
12622;DHT22;6376;48.182;-1.644;2023-08-17T04:01:53;19.80;91.50
12622;DHT22;6376;48.182;-1.644;2023-08-17T04:04:19;19.80;91.60
12622;DHT22;6376;48.182;-1.644;2023-08-17T04:06:44;19.80;91.60
12622;DHT22;6376;48.182;-1.644;2023-08-17T04:09:10;19.80;91.60
12622;DHT22;6376;48.182;-1.644;2023-08-17T04:11:36;19.80;91.60
12622;DHT22;6376;48.182;-1.644;2023-08-17T04:14:03;19.80;91.60
12622;DHT22;6376;48.182;-1.644;2023-08-17T04:16:29;19.80;91.70
12622;DHT22;6376;48.182;-1.644;2023-08-17T04:18:54;19.80;91.60
12622;DHT22;6376;48.182;-1.644;2023-08-17T04:21:20;19.80;91.70
12622;DHT22;6376;48.182;-1.644;2023-08-17T04:23:46;19.80;91.70
12622;DHT22;6376;48.182;-1.644;2023-08-17T04:26:11;19.80;91.70
12622;DHT22;6376;48.182;-1.644;2023-08-17T04:28:37;19.80;91.70
12622;DHT22;6376;48.182;-1.644;2023-08-17T04:31:03;19.80;91.70
12622;DHT22;6376;48.182;-1.644;2023-08-17T04:33:28;19.70;91.70
12622;DHT22;6376;48.182;-1.644;2023-08-17T04:35:54;19.80;91.80
12622;DHT22;6376;48.182;-1.644;2023-08-17T04:38:20;19.80;91.80
12622;DHT22;6376;48.182;-1.644;2023-08-17T04:40:46;19.80;91.80
12622;DHT22;6376;48.182;-1.644;2023-08-17T04:43:11;19.80;91.80
12622;DHT22;6376;48.182;-1.644;2023-08-17T04:45:37;19.80;91.80
12622;DHT22;6376;48.182;-1.644;2023-08-17T04:48:03;19.80;91.80
12622;DHT22;6376;48.182;-1.644;2023-08-17T04:50:29;19.80;91.80
12622;DHT22;6376;48.182;-1.644;2023-08-17T04:52:55;19.70;91.80
12622;DHT22;6376;48.182;-1.644;2023-08-17T04:55:20;19.80;91.80
12622;DHT22;6376;48.182;-1.644;2023-08-17T04:57:46;19.70;91.80
12622;DHT22;6376;48.182;-1.644;2023-08-17T05:00:13;19.70;91.80
12622;DHT22;6376;48.182;-1.644;2023-08-17T05:02:38;19.70;91.80
12622;DHT22;6376;48.182;-1.644;2023-08-17T05:05:05;19.70;91.80
12622;DHT22;6376;48.182;-1.644;2023-08-17T05:07:32;19.70;91.80
12622;DHT22;6376;48.182;-1.644;2023-08-17T05:09:58;19.70;91.80
12622;DHT22;6376;48.182;-1.644;2023-08-17T05:12:24;19.70;91.80
12622;DHT22;6376;48.182;-1.644;2023-08-17T05:14:49;19.70;91.90
12622;DHT22;6376;48.182;-1.644;2023-08-17T05:17:15;19.70;91.90
12622;DHT22;6376;48.182;-1.644;2023-08-17T05:19:41;19.70;91.90
12622;DHT22;6376;48.182;-1.644;2023-08-17T05:22:11;19.70;91.90
12622;DHT22;6376;48.182;-1.644;2023-08-17T05:24:38;19.70;91.90
12622;DHT22;6376;48.182;-1.644;2023-08-17T05:27:04;19.70;91.80
12622;DHT22;6376;48.182;-1.644;2023-08-17T05:29:30;19.70;91.80
12622;DHT22;6376;48.182;-1.644;2023-08-17T05:31:57;19.70;91.80
12622;DHT22;6376;48.182;-1.644;2023-08-17T05:34:23;19.70;91.80
12622;DHT22;6376;48.182;-1.644;2023-08-17T05:36:49;19.70;91.80
12622;DHT22;6376;48.182;-1.644;2023-08-17T05:39:15;19.70;91.80
12622;DHT22;6376;48.182;-1.644;2023-08-17T05:41:40;19.70;91.80
12622;DHT22;6376;48.182;-1.644;2023-08-17T05:44:06;19.70;91.80
12622;DHT22;6376;48.182;-1.644;2023-08-17T05:46:33;19.70;91.80
12622;DHT22;6376;48.182;-1.644;2023-08-17T05:48:58;19.80;91.80
12622;DHT22;6376;48.182;-1.644;2023-08-17T05:51:24;19.70;91.80
12622;DHT22;6376;48.182;-1.644;2023-08-17T05:53:50;19.70;91.80
12622;DHT22;6376;48.182;-1.644;2023-08-17T05:56:16;19.70;91.80
12622;DHT22;6376;48.182;-1.644;2023-08-17T05:58:41;19.70;91.80
12622;DHT22;6376;48.182;-1.644;2023-08-17T06:01:08;19.70;91.80
12622;DHT22;6376;48.182;-1.644;2023-08-17T06:03:37;19.70;91.80
12622;DHT22;6376;48.182;-1.644;2023-08-17T06:06:04;19.70;91.80
12622;DHT22;6376;48.182;-1.644;2023-08-17T06:08:30;19.70;91.80
12622;DHT22;6376;48.182;-1.644;2023-08-17T06:10:56;19.70;91.80
12622;DHT22;6376;48.182;-1.644;2023-08-17T06:13:22;19.70;91.80
12622;DHT22;6376;48.182;-1.644;2023-08-17T06:15:48;19.70;91.80
12622;DHT22;6376;48.182;-1.644;2023-08-17T06:18:13;19.70;91.80
12622;DHT22;6376;48.182;-1.644;2023-08-17T06:20:39;19.70;91.70
12622;DHT22;6376;48.182;-1.644;2023-08-17T06:23:05;19.70;91.70
12622;DHT22;6376;48.182;-1.644;2023-08-17T06:25:30;19.70;91.80
12622;DHT22;6376;48.182;-1.644;2023-08-17T06:27:56;19.70;91.70
12622;DHT22;6376;48.182;-1.644;2023-08-17T06:30:22;19.70;91.80
12622;DHT22;6376;48.182;-1.644;2023-08-17T06:32:50;19.70;91.70
12622;DHT22;6376;48.182;-1.644;2023-08-17T06:35:15;19.70;91.70
12622;DHT22;6376;48.182;-1.644;2023-08-17T06:37:41;19.70;91.80
12622;DHT22;6376;48.182;-1.644;2023-08-17T06:40:07;19.80;91.80
12622;DHT22;6376;48.182;-1.644;2023-08-17T06:42:34;19.80;91.80
12622;DHT22;6376;48.182;-1.644;2023-08-17T06:45:00;19.80;91.80
12622;DHT22;6376;48.182;-1.644;2023-08-17T06:47:26;19.80;91.80
12622;DHT22;6376;48.182;-1.644;2023-08-17T06:49:51;19.80;91.80
12622;DHT22;6376;48.182;-1.644;2023-08-17T06:52:17;19.80;91.80
12622;DHT22;6376;48.182;-1.644;2023-08-17T06:54:43;19.80;91.80
12622;DHT22;6376;48.182;-1.644;2023-08-17T06:57:08;19.80;91.80
12622;DHT22;6376;48.182;-1.644;2023-08-17T06:59:34;19.80;91.70
12622;DHT22;6376;48.182;-1.644;2023-08-17T07:01:59;19.80;91.80
12622;DHT22;6376;48.182;-1.644;2023-08-17T07:04:26;19.80;91.90
12622;DHT22;6376;48.182;-1.644;2023-08-17T07:06:52;19.80;92.00
12622;DHT22;6376;48.182;-1.644;2023-08-17T07:09:17;19.80;91.90
12622;DHT22;6376;48.182;-1.644;2023-08-17T07:11:44;19.80;91.90
12622;DHT22;6376;48.182;-1.644;2023-08-17T07:14:09;19.80;92.00
12622;DHT22;6376;48.182;-1.644;2023-08-17T07:16:35;19.80;91.90
12622;DHT22;6376;48.182;-1.644;2023-08-17T07:19:01;19.80;91.80
12622;DHT22;6376;48.182;-1.644;2023-08-17T07:21:27;19.80;91.70
12622;DHT22;6376;48.182;-1.644;2023-08-17T07:23:54;19.90;91.60
12622;DHT22;6376;48.182;-1.644;2023-08-17T07:26:20;19.90;91.50
12622;DHT22;6376;48.182;-1.644;2023-08-17T07:28:46;19.90;91.50
12622;DHT22;6376;48.182;-1.644;2023-08-17T07:31:12;19.90;91.40
12622;DHT22;6376;48.182;-1.644;2023-08-17T07:33:38;19.90;91.40
12622;DHT22;6376;48.182;-1.644;2023-08-17T07:36:04;19.90;91.40
12622;DHT22;6376;48.182;-1.644;2023-08-17T07:38:30;19.90;91.30
12622;DHT22;6376;48.182;-1.644;2023-08-17T07:40:56;19.90;91.20
12622;DHT22;6376;48.182;-1.644;2023-08-17T07:43:22;20.00;91.20
12622;DHT22;6376;48.182;-1.644;2023-08-17T07:45:56;20.10;91.10
12622;DHT22;6376;48.182;-1.644;2023-08-17T07:48:24;20.10;91.00
12622;DHT22;6376;48.182;-1.644;2023-08-17T07:50:53;20.10;90.80
12622;DHT22;6376;48.182;-1.644;2023-08-17T07:53:19;20.10;90.80
12622;DHT22;6376;48.182;-1.644;2023-08-17T07:55:45;20.20;90.70
12622;DHT22;6376;48.182;-1.644;2023-08-17T07:58:11;20.30;90.50
12622;DHT22;6376;48.182;-1.644;2023-08-17T08:00:36;20.40;90.10
12622;DHT22;6376;48.182;-1.644;2023-08-17T08:03:02;20.50;90.00
12622;DHT22;6376;48.182;-1.644;2023-08-17T08:05:29;20.40;90.00
12622;DHT22;6376;48.182;-1.644;2023-08-17T08:07:55;20.40;90.00
12622;DHT22;6376;48.182;-1.644;2023-08-17T08:10:20;20.50;89.70
12622;DHT22;6376;48.182;-1.644;2023-08-17T08:12:46;20.60;89.60
12622;DHT22;6376;48.182;-1.644;2023-08-17T08:15:11;20.50;89.60
12622;DHT22;6376;48.182;-1.644;2023-08-17T08:17:37;20.50;89.70
12622;DHT22;6376;48.182;-1.644;2023-08-17T08:20:03;20.50;89.70
12622;DHT22;6376;48.182;-1.644;2023-08-17T08:22:29;20.50;89.60
12622;DHT22;6376;48.182;-1.644;2023-08-17T08:24:55;20.60;89.40
12622;DHT22;6376;48.182;-1.644;2023-08-17T08:27:21;20.60;89.20
12622;DHT22;6376;48.182;-1.644;2023-08-17T08:29:47;20.60;89.00
12622;DHT22;6376;48.182;-1.644;2023-08-17T08:32:12;20.70;89.20
12622;DHT22;6376;48.182;-1.644;2023-08-17T08:34:38;20.70;88.50
12622;DHT22;6376;48.182;-1.644;2023-08-17T08:37:04;20.80;88.10
12622;DHT22;6376;48.182;-1.644;2023-08-17T08:39:29;20.80;87.90
12622;DHT22;6376;48.182;-1.644;2023-08-17T08:41:55;20.80;88.00
12622;DHT22;6376;48.182;-1.644;2023-08-17T08:44:22;21.00;88.00
12622;DHT22;6376;48.182;-1.644;2023-08-17T08:46:49;21.30;86.10
12622;DHT22;6376;48.182;-1.644;2023-08-17T08:49:20;21.40;85.20
12622;DHT22;6376;48.182;-1.644;2023-08-17T08:51:50;21.60;84.40
12622;DHT22;6376;48.182;-1.644;2023-08-17T08:54:21;21.70;83.80
12622;DHT22;6376;48.182;-1.644;2023-08-17T08:56:54;21.80;83.20
12622;DHT22;6376;48.182;-1.644;2023-08-17T08:59:24;21.90;82.50
12622;DHT22;6376;48.182;-1.644;2023-08-17T09:01:52;22.10;81.90
12622;DHT22;6376;48.182;-1.644;2023-08-17T09:04:18;22.20;81.20
12622;DHT22;6376;48.182;-1.644;2023-08-17T09:06:44;22.30;81.00
12622;DHT22;6376;48.182;-1.644;2023-08-17T09:09:11;22.40;80.00
12622;DHT22;6376;48.182;-1.644;2023-08-17T09:11:40;22.50;79.40
12622;DHT22;6376;48.182;-1.644;2023-08-17T09:14:06;22.60;78.80
12622;DHT22;6376;48.182;-1.644;2023-08-17T09:16:32;22.80;78.20
12622;DHT22;6376;48.182;-1.644;2023-08-17T09:18:58;22.90;77.50
12622;DHT22;6376;48.182;-1.644;2023-08-17T09:21:24;23.00;77.00
12622;DHT22;6376;48.182;-1.644;2023-08-17T09:23:51;23.10;76.40
12622;DHT22;6376;48.182;-1.644;2023-08-17T09:26:20;23.20;75.80
12622;DHT22;6376;48.182;-1.644;2023-08-17T09:28:47;23.30;75.30
12622;DHT22;6376;48.182;-1.644;2023-08-17T09:31:13;23.40;74.80
12622;DHT22;6376;48.182;-1.644;2023-08-17T09:33:38;23.40;74.30
12622;DHT22;6376;48.182;-1.644;2023-08-17T09:36:04;23.50;73.90
12622;DHT22;6376;48.182;-1.644;2023-08-17T09:38:30;23.60;73.70
12622;DHT22;6376;48.182;-1.644;2023-08-17T09:40:57;23.60;73.40
12622;DHT22;6376;48.182;-1.644;2023-08-17T09:43:23;23.30;74.80
12622;DHT22;6376;48.182;-1.644;2023-08-17T09:45:50;23.40;74.30
12622;DHT22;6376;48.182;-1.644;2023-08-17T09:48:16;23.40;74.40
12622;DHT22;6376;48.182;-1.644;2023-08-17T09:50:44;23.50;73.80
12622;DHT22;6376;48.182;-1.644;2023-08-17T09:53:18;23.10;75.80
12622;DHT22;6376;48.182;-1.644;2023-08-17T09:55:47;22.60;78.40
12622;DHT22;6376;48.182;-1.644;2023-08-17T09:58:14;22.60;78.10
12622;DHT22;6376;48.182;-1.644;2023-08-17T10:00:44;22.60;78.20
12622;DHT22;6376;48.182;-1.644;2023-08-17T10:03:11;22.60;78.60
12622;DHT22;6376;48.182;-1.644;2023-08-17T10:05:40;22.70;79.00
12622;DHT22;6376;48.182;-1.644;2023-08-17T10:08:07;22.50;79.10
12622;DHT22;6376;48.182;-1.644;2023-08-17T10:10:35;22.50;79.10
12622;DHT22;6376;48.182;-1.644;2023-08-17T10:15:34;22.30;80.50
12622;DHT22;6376;48.182;-1.644;2023-08-17T10:18:26;22.30;80.70
12622;DHT22;6376;48.182;-1.644;2023-08-17T10:21:10;22.50;80.10
12622;DHT22;6376;48.182;-1.644;2023-08-17T10:23:38;22.60;79.60
12622;DHT22;6376;48.182;-1.644;2023-08-17T10:26:04;22.60;79.30
12622;DHT22;6376;48.182;-1.644;2023-08-17T10:28:34;22.50;80.00
12622;DHT22;6376;48.182;-1.644;2023-08-17T10:30:59;22.60;79.80
12622;DHT22;6376;48.182;-1.644;2023-08-17T10:33:27;22.50;80.10
12622;DHT22;6376;48.182;-1.644;2023-08-17T10:35:53;22.60;79.70
12622;DHT22;6376;48.182;-1.644;2023-08-17T10:38:19;22.70;79.40
12622;DHT22;6376;48.182;-1.644;2023-08-17T10:40:45;22.80;79.90
12622;DHT22;6376;48.182;-1.644;2023-08-17T10:43:33;22.80;79.50
12622;DHT22;6376;48.182;-1.644;2023-08-17T10:46:15;22.80;79.80
12622;DHT22;6376;48.182;-1.644;2023-08-17T10:48:43;22.80;79.70
12622;DHT22;6376;48.182;-1.644;2023-08-17T10:51:09;22.80;79.50
12622;DHT22;6376;48.182;-1.644;2023-08-17T10:53:39;22.90;79.50
12622;DHT22;6376;48.182;-1.644;2023-08-17T10:56:13;22.80;80.00
12622;DHT22;6376;48.182;-1.644;2023-08-17T10:58:39;22.70;80.20
12622;DHT22;6376;48.182;-1.644;2023-08-17T11:01:06;22.70;80.30
12622;DHT22;6376;48.182;-1.644;2023-08-17T11:03:32;22.60;80.80
12622;DHT22;6376;48.182;-1.644;2023-08-17T11:06:14;22.50;81.40
12622;DHT22;6376;48.182;-1.644;2023-08-17T11:08:54;22.40;82.10
12622;DHT22;6376;48.182;-1.644;2023-08-17T11:11:21;22.40;82.40
12622;DHT22;6376;48.182;-1.644;2023-08-17T11:13:48;22.30;82.70
12622;DHT22;6376;48.182;-1.644;2023-08-17T11:16:16;22.40;82.30
12622;DHT22;6376;48.182;-1.644;2023-08-17T11:18:43;22.40;82.10
12622;DHT22;6376;48.182;-1.644;2023-08-17T11:21:12;22.50;82.20
12622;DHT22;6376;48.182;-1.644;2023-08-17T11:23:38;22.50;81.90
12622;DHT22;6376;48.182;-1.644;2023-08-17T11:26:04;22.40;82.50
12622;DHT22;6376;48.182;-1.644;2023-08-17T11:28:31;22.30;83.00
12622;DHT22;6376;48.182;-1.644;2023-08-17T11:31:07;22.30;83.60
12622;DHT22;6376;48.182;-1.644;2023-08-17T11:33:36;22.50;82.70
12622;DHT22;6376;48.182;-1.644;2023-08-17T11:36:03;22.60;82.00
12622;DHT22;6376;48.182;-1.644;2023-08-17T11:38:35;22.60;81.90
12622;DHT22;6376;48.182;-1.644;2023-08-17T11:41:02;22.70;81.80
12622;DHT22;6376;48.182;-1.644;2023-08-17T11:43:28;22.70;81.80
12622;DHT22;6376;48.182;-1.644;2023-08-17T11:45:55;22.70;82.60
12622;DHT22;6376;48.182;-1.644;2023-08-17T11:48:21;22.80;82.60
12622;DHT22;6376;48.182;-1.644;2023-08-17T11:50:47;22.80;81.50
12622;DHT22;6376;48.182;-1.644;2023-08-17T11:53:13;22.90;81.40
12622;DHT22;6376;48.182;-1.644;2023-08-17T11:55:39;22.80;81.70
12622;DHT22;6376;48.182;-1.644;2023-08-17T11:58:05;22.70;82.40
12622;DHT22;6376;48.182;-1.644;2023-08-17T12:00:35;22.70;82.30
12622;DHT22;6376;48.182;-1.644;2023-08-17T12:03:04;22.80;82.20
12622;DHT22;6376;48.182;-1.644;2023-08-17T12:05:31;22.80;82.00
12622;DHT22;6376;48.182;-1.644;2023-08-17T12:07:59;22.80;82.20
12622;DHT22;6376;48.182;-1.644;2023-08-17T12:10:28;22.70;82.50
12622;DHT22;6376;48.182;-1.644;2023-08-17T12:12:57;22.60;83.10
12622;DHT22;6376;48.182;-1.644;2023-08-17T12:15:24;22.50;83.50
12622;DHT22;6376;48.182;-1.644;2023-08-17T12:17:51;22.50;83.80
12622;DHT22;6376;48.182;-1.644;2023-08-17T12:20:21;22.40;83.90
12622;DHT22;6376;48.182;-1.644;2023-08-17T12:22:47;22.40;84.20
12622;DHT22;6376;48.182;-1.644;2023-08-17T12:25:14;22.40;84.30
12622;DHT22;6376;48.182;-1.644;2023-08-17T12:27:40;22.40;84.10
12622;DHT22;6376;48.182;-1.644;2023-08-17T12:30:12;22.50;83.90
12622;DHT22;6376;48.182;-1.644;2023-08-17T12:32:38;22.60;83.40
12622;DHT22;6376;48.182;-1.644;2023-08-17T12:35:04;22.60;83.20
12622;DHT22;6376;48.182;-1.644;2023-08-17T12:37:30;22.60;83.40
12622;DHT22;6376;48.182;-1.644;2023-08-17T12:39:55;22.50;83.90
12622;DHT22;6376;48.182;-1.644;2023-08-17T12:42:21;22.40;84.30
12622;DHT22;6376;48.182;-1.644;2023-08-17T12:44:47;22.50;84.10
12622;DHT22;6376;48.182;-1.644;2023-08-17T12:47:12;22.50;83.70
12622;DHT22;6376;48.182;-1.644;2023-08-17T12:49:38;22.50;84.00
12622;DHT22;6376;48.182;-1.644;2023-08-17T12:52:04;22.50;84.10
12622;DHT22;6376;48.182;-1.644;2023-08-17T12:54:29;22.40;84.40
12622;DHT22;6376;48.182;-1.644;2023-08-17T12:56:55;22.40;84.70
12622;DHT22;6376;48.182;-1.644;2023-08-17T12:59:20;22.40;84.40
12622;DHT22;6376;48.182;-1.644;2023-08-17T13:01:46;22.40;84.70
12622;DHT22;6376;48.182;-1.644;2023-08-17T13:04:12;22.30;84.90
12622;DHT22;6376;48.182;-1.644;2023-08-17T13:06:38;22.30;85.20
12622;DHT22;6376;48.182;-1.644;2023-08-17T13:09:05;22.20;85.30
12622;DHT22;6376;48.182;-1.644;2023-08-17T13:11:31;22.20;85.40
12622;DHT22;6376;48.182;-1.644;2023-08-17T13:13:57;22.20;85.50
12622;DHT22;6376;48.182;-1.644;2023-08-17T13:16:23;22.20;85.60
12622;DHT22;6376;48.182;-1.644;2023-08-17T13:18:48;22.20;85.70
12622;DHT22;6376;48.182;-1.644;2023-08-17T13:21:14;22.20;85.80
12622;DHT22;6376;48.182;-1.644;2023-08-17T13:23:41;22.20;85.90
12622;DHT22;6376;48.182;-1.644;2023-08-17T13:26:07;22.20;85.90
12622;DHT22;6376;48.182;-1.644;2023-08-17T13:28:32;22.20;86.10
12622;DHT22;6376;48.182;-1.644;2023-08-17T13:30:58;22.10;86.10
12622;DHT22;6376;48.182;-1.644;2023-08-17T13:33:24;22.10;86.20
12622;DHT22;6376;48.182;-1.644;2023-08-17T13:35:49;22.10;86.40
12622;DHT22;6376;48.182;-1.644;2023-08-17T13:38:16;22.10;86.20
12622;DHT22;6376;48.182;-1.644;2023-08-17T13:40:42;22.10;86.20
12622;DHT22;6376;48.182;-1.644;2023-08-17T13:43:07;22.10;86.30
12622;DHT22;6376;48.182;-1.644;2023-08-17T13:45:40;22.10;86.50
12622;DHT22;6376;48.182;-1.644;2023-08-17T13:48:07;22.10;86.50
12622;DHT22;6376;48.182;-1.644;2023-08-17T13:50:34;22.10;86.50
12622;DHT22;6376;48.182;-1.644;2023-08-17T13:52:59;22.10;86.50
12622;DHT22;6376;48.182;-1.644;2023-08-17T13:55:26;22.10;86.50
12622;DHT22;6376;48.182;-1.644;2023-08-17T13:57:53;22.10;86.60
12622;DHT22;6376;48.182;-1.644;2023-08-17T14:00:21;22.10;86.60
12622;DHT22;6376;48.182;-1.644;2023-08-17T14:02:46;22.10;86.70
12622;DHT22;6376;48.182;-1.644;2023-08-17T14:05:12;22.10;86.70
12622;DHT22;6376;48.182;-1.644;2023-08-17T14:07:38;22.10;86.90
12622;DHT22;6376;48.182;-1.644;2023-08-17T14:10:03;22.00;86.80
12622;DHT22;6376;48.182;-1.644;2023-08-17T14:12:30;22.00;86.80
12622;DHT22;6376;48.182;-1.644;2023-08-17T14:14:55;22.10;86.90
12622;DHT22;6376;48.182;-1.644;2023-08-17T14:17:21;22.00;86.90
12622;DHT22;6376;48.182;-1.644;2023-08-17T14:19:47;22.10;86.90
12622;DHT22;6376;48.182;-1.644;2023-08-17T14:22:12;22.10;86.80
12622;DHT22;6376;48.182;-1.644;2023-08-17T14:24:38;22.10;86.80
12622;DHT22;6376;48.182;-1.644;2023-08-17T14:27:04;22.10;86.70
12622;DHT22;6376;48.182;-1.644;2023-08-17T14:29:29;22.10;86.60
12622;DHT22;6376;48.182;-1.644;2023-08-17T14:31:55;22.10;86.80
12622;DHT22;6376;48.182;-1.644;2023-08-17T14:34:20;22.10;86.90
12622;DHT22;6376;48.182;-1.644;2023-08-17T14:36:47;22.10;87.10
12622;DHT22;6376;48.182;-1.644;2023-08-17T14:39:12;22.10;87.00
12622;DHT22;6376;48.182;-1.644;2023-08-17T14:41:38;22.10;87.70
12622;DHT22;6376;48.182;-1.644;2023-08-17T14:44:04;22.10;86.90
12622;DHT22;6376;48.182;-1.644;2023-08-17T14:46:30;22.10;86.90
12622;DHT22;6376;48.182;-1.644;2023-08-17T14:48:55;22.10;87.30
12622;DHT22;6376;48.182;-1.644;2023-08-17T14:51:21;22.10;87.00
12622;DHT22;6376;48.182;-1.644;2023-08-17T14:53:47;22.10;86.90
12622;DHT22;6376;48.182;-1.644;2023-08-17T14:56:12;22.10;87.00
12622;DHT22;6376;48.182;-1.644;2023-08-17T14:58:38;22.10;87.00
12622;DHT22;6376;48.182;-1.644;2023-08-17T15:01:03;22.10;87.20
12622;DHT22;6376;48.182;-1.644;2023-08-17T15:03:29;22.00;87.10
12622;DHT22;6376;48.182;-1.644;2023-08-17T15:05:55;22.10;87.20
12622;DHT22;6376;48.182;-1.644;2023-08-17T15:08:20;22.10;87.20
12622;DHT22;6376;48.182;-1.644;2023-08-17T15:10:47;22.10;87.20
12622;DHT22;6376;48.182;-1.644;2023-08-17T15:13:14;22.10;87.20
12622;DHT22;6376;48.182;-1.644;2023-08-17T15:15:41;22.00;87.20
12622;DHT22;6376;48.182;-1.644;2023-08-17T15:18:08;22.00;87.30
12622;DHT22;6376;48.182;-1.644;2023-08-17T15:20:34;22.00;87.40
12622;DHT22;6376;48.182;-1.644;2023-08-17T15:22:59;22.00;87.50
12622;DHT22;6376;48.182;-1.644;2023-08-17T15:25:25;22.00;87.50
12622;DHT22;6376;48.182;-1.644;2023-08-17T15:27:51;22.00;87.60
12622;DHT22;6376;48.182;-1.644;2023-08-17T15:30:16;22.00;87.60
12622;DHT22;6376;48.182;-1.644;2023-08-17T15:32:42;22.00;87.70